createdAt,value
2019-04-20T00:00:58.869Z,1325
2019-04-20T00:02:01.171Z,1423
2019-04-20T00:03:03.507Z,1441
2019-04-20T00:04:05.695Z,1466
2019-04-20T00:05:07.969Z,1427
2019-04-20T00:06:10.280Z,1449
2019-04-20T00:07:12.512Z,1432
2019-04-20T00:08:14.893Z,1425
2019-04-20T00:09:18.847Z,1406
2019-04-20T00:10:19.329Z,1356
2019-04-20T00:11:21.591Z,1388
2019-04-20T00:12:24.194Z,1412
2019-04-20T00:13:26.200Z,1406
2019-04-20T00:14:28.460Z,1555
2019-04-20T00:15:30.761Z,1465
2019-04-20T00:16:32.948Z,1480
2019-04-20T00:17:35.310Z,1502
2019-04-20T00:18:37.503Z,1460
2019-04-20T00:19:39.824Z,1482
2019-04-20T00:20:42.045Z,1406
2019-04-20T00:21:44.408Z,1459
2019-04-20T00:22:46.616Z,1505
2019-04-20T00:23:48.857Z,1492
2019-04-20T00:24:51.182Z,1516
2019-04-20T00:25:53.502Z,1657
2019-04-20T00:26:55.701Z,1433
2019-04-20T00:27:58.006Z,1526
2019-04-20T00:29:00.248Z,1421
2019-04-20T00:30:02.500Z,1521
2019-04-20T00:31:04.783Z,1525
2019-04-20T00:32:07.064Z,1586
2019-04-20T00:33:09.360Z,1507
2019-04-20T00:34:11.642Z,1524
2019-04-20T00:35:13.870Z,1500
2019-04-20T00:36:16.126Z,1485
2019-04-20T00:37:18.508Z,1509
2019-04-20T00:38:20.716Z,1497
2019-04-20T00:39:22.947Z,1414
2019-04-20T00:40:25.222Z,1487
2019-04-20T00:41:27.490Z,1423
2019-04-20T00:42:29.781Z,1381
2019-04-20T00:43:32.040Z,1465
2019-04-20T00:44:34.327Z,1533
2019-04-20T00:45:36.812Z,1496
2019-04-20T00:46:38.878Z,1537
2019-04-20T00:47:41.131Z,1584
2019-04-20T00:48:43.586Z,1527
2019-04-20T00:49:45.810Z,1470
2019-04-20T00:50:48.056Z,1527
2019-04-20T00:51:50.362Z,1518
2019-04-20T00:52:52.602Z,1546
2019-04-20T00:53:54.978Z,1547
2019-04-20T00:54:57.189Z,1490
2019-04-20T00:55:59.517Z,1464
2019-04-20T00:57:01.721Z,1546
2019-04-20T00:58:03.976Z,1611
2019-04-20T00:59:06.358Z,1443
2019-04-20T01:00:08.522Z,1450
2019-04-20T01:01:10.813Z,1630
2019-04-20T01:02:13.059Z,1607
2019-04-20T01:03:15.368Z,2240
2019-04-20T01:04:17.756Z,2035
2019-04-20T01:05:20.152Z,2289
2019-04-20T01:06:22.287Z,2429
2019-04-20T01:07:24.778Z,2365
2019-04-20T01:08:26.980Z,2293
2019-04-20T01:09:29.243Z,2448
2019-04-20T01:10:31.569Z,1938
2019-04-20T01:11:33.781Z,1708
2019-04-20T01:12:36.120Z,2365
2019-04-20T01:13:38.338Z,2208
2019-04-20T01:14:40.694Z,2302
2019-04-20T01:15:42.934Z,2010
2019-04-20T01:16:46.294Z,2293
2019-04-20T01:17:47.422Z,2118
2019-04-20T01:18:49.722Z,2344
2019-04-20T01:19:52.019Z,2125
2019-04-20T01:20:54.290Z,2238
2019-04-20T01:21:56.689Z,2337
2019-04-20T01:22:58.819Z,2256
2019-04-20T01:24:03.681Z,1890
2019-04-20T01:25:03.490Z,1955
2019-04-20T01:26:05.641Z,2019
2019-04-20T01:27:07.920Z,2114
2019-04-20T01:28:10.166Z,2028
2019-04-20T01:29:12.517Z,2125
2019-04-20T01:30:14.705Z,1552
2019-04-20T01:31:17.044Z,1957
2019-04-20T01:32:19.272Z,1844
2019-04-20T01:33:21.612Z,1798
2019-04-20T01:34:23.974Z,1766
2019-04-20T01:35:26.075Z,1502
2019-04-20T01:36:28.360Z,1862
2019-04-20T01:37:30.657Z,1703
2019-04-20T01:38:32.901Z,1485
2019-04-20T01:39:35.278Z,1534
2019-04-20T01:40:37.492Z,1835
2019-04-20T01:41:39.716Z,1513
2019-04-20T01:42:42.089Z,1964
2019-04-20T01:43:44.365Z,1486
2019-04-20T01:44:46.548Z,1551
2019-04-20T01:45:48.916Z,1586
2019-04-20T01:46:51.156Z,1731
2019-04-20T01:47:53.378Z,1616
2019-04-20T01:48:55.673Z,1821
2019-04-20T01:49:57.975Z,1584
2019-04-20T01:51:00.195Z,1499
2019-04-20T01:52:02.542Z,1450
2019-04-20T01:53:04.861Z,1523
2019-04-20T01:54:07.153Z,1453
2019-04-20T01:55:09.365Z,1533
2019-04-20T01:56:11.650Z,1915
2019-04-20T01:57:13.916Z,1830
2019-04-20T01:58:16.197Z,1803
2019-04-20T01:59:18.466Z,1669
2019-04-20T02:00:20.748Z,1546
2019-04-20T02:01:23.007Z,1687
2019-04-20T02:02:25.280Z,1493
2019-04-20T02:03:27.561Z,1474
2019-04-20T02:04:29.955Z,1646
2019-04-20T02:05:32.135Z,1532
2019-04-20T02:06:34.365Z,1558
2019-04-20T02:07:36.771Z,1490
2019-04-20T02:08:38.922Z,1812
2019-04-20T02:09:41.299Z,1511
2019-04-20T02:10:43.461Z,1530
2019-04-20T02:11:45.967Z,1503
2019-04-20T02:12:48.164Z,1648
2019-04-20T02:13:50.462Z,1832
2019-04-20T02:14:52.732Z,1872
2019-04-20T02:15:54.967Z,1941
2019-04-20T02:16:57.240Z,1913
2019-04-20T02:17:59.516Z,1932
2019-04-20T02:19:01.875Z,2058
2019-04-20T02:20:04.061Z,1962
2019-04-20T02:21:06.354Z,1770
2019-04-20T02:22:08.688Z,1892
2019-04-20T02:23:11.496Z,1521
2019-04-20T02:24:13.296Z,1812
2019-04-20T02:25:15.452Z,1962
2019-04-20T02:26:17.794Z,1540
2019-04-20T02:27:20.075Z,1800
2019-04-20T02:28:22.245Z,1646
2019-04-20T02:29:24.603Z,1782
2019-04-20T02:30:26.934Z,1849
2019-04-20T02:31:29.156Z,2150
2019-04-20T02:32:31.422Z,1909
2019-04-20T02:33:33.707Z,2010
2019-04-20T02:34:35.967Z,1821
2019-04-20T02:35:38.251Z,1888
2019-04-20T02:36:40.525Z,1752
2019-04-20T02:37:42.825Z,1796
2019-04-20T02:38:45.069Z,1832
2019-04-20T02:39:47.369Z,1759
2019-04-20T02:40:49.791Z,1948
2019-04-20T02:41:51.894Z,1807
2019-04-20T02:42:54.181Z,1623
2019-04-20T02:43:56.487Z,1511
2019-04-20T02:44:58.707Z,1680
2019-04-20T02:46:01.067Z,1796
2019-04-20T02:47:03.253Z,1895
2019-04-20T02:48:05.515Z,1685
2019-04-20T02:49:07.809Z,1570
2019-04-20T02:50:10.071Z,1955
2019-04-20T02:51:12.335Z,1697
2019-04-20T02:52:14.607Z,1805
2019-04-20T02:53:16.902Z,1740
2019-04-20T02:54:19.171Z,1819
2019-04-20T02:55:21.501Z,1523
2019-04-20T02:56:27.463Z,1745
2019-04-20T02:57:25.986Z,1492
2019-04-20T02:58:28.286Z,1588
2019-04-20T02:59:30.563Z,1678
2019-04-20T03:00:33.887Z,1687
2019-04-20T03:01:35.097Z,1706
2019-04-20T03:02:37.493Z,2134
2019-04-20T03:03:39.645Z,2572
2019-04-20T03:04:42.005Z,2346
2019-04-20T03:05:44.198Z,2475
2019-04-20T03:06:46.471Z,2263
2019-04-20T03:07:48.737Z,2201
2019-04-20T03:08:51.031Z,1750
2019-04-20T03:09:53.289Z,2120
2019-04-20T03:10:55.542Z,2079
2019-04-20T03:11:57.853Z,1793
2019-04-20T03:13:00.095Z,1477
2019-04-20T03:14:02.389Z,1996
2019-04-20T03:15:04.656Z,1814
2019-04-20T03:16:07.096Z,1692
2019-04-20T03:17:09.177Z,1943
2019-04-20T03:18:11.583Z,1532
2019-04-20T03:19:13.731Z,1807
2019-04-20T03:20:16.048Z,1766
2019-04-20T03:21:19.442Z,2173
2019-04-20T03:22:20.624Z,2081
2019-04-20T03:23:24.137Z,2270
2019-04-20T03:24:25.135Z,2176
2019-04-20T03:25:27.419Z,1775
2019-04-20T03:26:29.662Z,1591
2019-04-20T03:27:31.939Z,1987
2019-04-20T03:28:34.359Z,1676
2019-04-20T03:29:36.669Z,1883
2019-04-20T03:30:38.818Z,1982
2019-04-20T03:31:44.849Z,1502
2019-04-20T03:32:43.390Z,1518
2019-04-20T03:33:45.647Z,1676
2019-04-20T03:34:47.920Z,1807
2019-04-20T03:35:50.294Z,1865
2019-04-20T03:36:54.521Z,1766
2019-04-20T03:37:54.740Z,1837
2019-04-20T03:38:57.039Z,1793
2019-04-20T03:39:59.289Z,1680
2019-04-20T03:41:01.575Z,1784
2019-04-20T03:42:03.886Z,1532
2019-04-20T03:43:06.100Z,1720
2019-04-20T03:44:08.497Z,1572
2019-04-20T03:45:10.649Z,1717
2019-04-20T03:46:12.934Z,1653
2019-04-20T03:47:15.221Z,1750
2019-04-20T03:48:17.507Z,1581
2019-04-20T03:49:19.739Z,1544
2019-04-20T03:50:22.030Z,1526
2019-04-20T03:51:24.306Z,1550
2019-04-20T03:52:26.632Z,1482
2019-04-20T03:53:28.843Z,1657
2019-04-20T03:54:31.141Z,1491
2019-04-20T03:55:33.585Z,1553
2019-04-20T03:56:35.696Z,1488
2019-04-20T03:57:39.023Z,1493
2019-04-20T03:58:40.294Z,1507
2019-04-20T03:59:42.509Z,1600
2019-04-20T04:00:44.780Z,1627
2019-04-20T04:01:47.061Z,1547
2019-04-20T04:02:49.324Z,1543
2019-04-20T04:03:55.413Z,1539
2019-04-20T04:04:53.874Z,1505
2019-04-20T04:05:56.139Z,1570
2019-04-20T04:06:58.402Z,1500
2019-04-20T04:08:00.812Z,1418
2019-04-20T04:09:02.971Z,1506
2019-04-20T04:10:09.423Z,1553
2019-04-20T04:11:07.529Z,1489
2019-04-20T04:12:09.798Z,1547
2019-04-20T04:13:12.056Z,1499
2019-04-20T04:14:14.320Z,1669
2019-04-20T04:15:18.295Z,1555
2019-04-20T04:16:19.000Z,1512
2019-04-20T04:17:21.290Z,1496
2019-04-20T04:18:23.436Z,1504
2019-04-20T04:19:25.703Z,1530
2019-04-20T04:20:28.071Z,1493
2019-04-20T04:21:30.264Z,1422
2019-04-20T04:22:32.537Z,1480
2019-04-20T04:23:34.818Z,1429
2019-04-20T04:24:37.074Z,1555
2019-04-20T04:25:39.424Z,1512
2019-04-20T04:26:41.614Z,1514
2019-04-20T04:27:43.891Z,1464
2019-04-20T04:28:46.170Z,3328
2019-04-20T04:29:48.518Z,2455
2019-04-20T04:30:51.367Z,2323
2019-04-20T04:31:53.072Z,1770
2019-04-20T04:32:55.432Z,1664
2019-04-20T04:33:57.690Z,1574
2019-04-20T04:34:59.888Z,1750
2019-04-20T04:36:03.672Z,1671
2019-04-20T04:37:04.490Z,1611
2019-04-20T04:38:06.777Z,1477
2019-04-20T04:39:09.015Z,1508
2019-04-20T04:40:11.287Z,1521
2019-04-20T04:41:13.546Z,1676
2019-04-20T04:42:16.052Z,1584
2019-04-20T04:43:18.145Z,1454
2019-04-20T04:44:20.433Z,1532
2019-04-20T04:45:22.653Z,1674
2019-04-20T04:46:24.899Z,1540
2019-04-20T04:47:27.330Z,1553
2019-04-20T04:48:29.443Z,1491
2019-04-20T04:49:31.706Z,1487
2019-04-20T04:50:33.980Z,1537
2019-04-20T04:51:36.427Z,1411
2019-04-20T04:52:38.656Z,1468
2019-04-20T04:53:40.806Z,1517
2019-04-20T04:54:43.116Z,1531
2019-04-20T04:55:45.440Z,1479
2019-04-20T04:56:47.707Z,1537
2019-04-20T04:57:49.907Z,1423
2019-04-20T04:58:52.219Z,1408
2019-04-20T04:59:54.476Z,1407
2019-04-20T05:00:56.742Z,1496
2019-04-20T05:01:59.014Z,1426
2019-04-20T05:03:01.291Z,1536
2019-04-20T05:04:04.577Z,1510
2019-04-20T05:05:05.909Z,1520
2019-04-20T05:06:08.173Z,1360
2019-04-20T05:07:10.375Z,1441
2019-04-20T05:08:12.737Z,1446
2019-04-20T05:09:19.007Z,1445
2019-04-20T05:10:17.229Z,1458
2019-04-20T05:11:19.503Z,1468
2019-04-20T05:12:21.827Z,1482
2019-04-20T05:13:24.013Z,1465
2019-04-20T05:14:26.316Z,1435
2019-04-20T05:15:28.625Z,1425
2019-04-20T05:16:33.844Z,1464
2019-04-20T05:17:33.161Z,1456
2019-04-20T05:18:35.421Z,1430
2019-04-20T05:19:37.658Z,1438
2019-04-20T05:20:40.799Z,1452
2019-04-20T05:21:42.243Z,1423
2019-04-20T05:22:44.482Z,1447
2019-04-20T05:23:46.762Z,1470
2019-04-20T05:24:49.034Z,1420
2019-04-20T05:25:53.914Z,1356
2019-04-20T05:26:53.576Z,1486
2019-04-20T05:27:55.893Z,1419
2019-04-20T05:28:58.218Z,1396
2019-04-20T05:30:00.455Z,1454
2019-04-20T05:31:02.678Z,1397
2019-04-20T05:32:05.025Z,1386
2019-04-20T05:33:07.324Z,1425
2019-04-20T05:34:09.680Z,1439
2019-04-20T05:35:11.863Z,1446
2019-04-20T05:36:14.194Z,1398
2019-04-20T05:37:16.469Z,1409
2019-04-20T05:38:18.698Z,1421
2019-04-20T05:39:20.970Z,1503
2019-04-20T05:40:23.281Z,1437
2019-04-20T05:41:25.516Z,1441
2019-04-20T05:42:27.839Z,1432
2019-04-20T05:43:30.163Z,1414
2019-04-20T05:44:32.326Z,1420
2019-04-20T05:45:34.580Z,1421
2019-04-20T05:46:36.869Z,1404
2019-04-20T05:47:39.164Z,1416
2019-04-20T05:48:41.475Z,1425
2019-04-20T05:49:43.710Z,1376
2019-04-20T05:50:45.958Z,1422
2019-04-20T05:51:48.259Z,1366
2019-04-20T05:52:50.490Z,1384
2019-04-20T05:53:52.809Z,1378
2019-04-20T05:54:55.087Z,1352
2019-04-20T05:55:59.795Z,1369
2019-04-20T05:56:59.722Z,1353
2019-04-20T05:58:01.949Z,1334
2019-04-20T05:59:04.137Z,1385
2019-04-20T06:00:06.584Z,1312
2019-04-20T06:01:08.727Z,1331
2019-04-20T06:02:11.025Z,1379
2019-04-20T06:04:15.622Z,1312
2019-04-20T06:05:17.828Z,1324
2019-04-20T06:06:20.081Z,1346
2019-04-20T06:07:22.634Z,1311
2019-04-20T06:08:24.799Z,1329
2019-04-20T06:09:26.913Z,1351
2019-04-20T06:10:29.369Z,1339
2019-04-20T06:11:31.435Z,1350
2019-04-20T06:12:33.705Z,1320
2019-04-20T06:13:40.965Z,1346
2019-04-20T06:14:38.354Z,1301
2019-04-20T06:15:40.536Z,1237
2019-04-20T06:16:42.806Z,1306
2019-04-20T06:17:45.142Z,1316
2019-04-20T06:18:47.465Z,1288
2019-04-20T06:19:49.694Z,1317
2019-04-20T06:20:51.898Z,1304
2019-04-20T06:22:56.561Z,1261
2019-04-20T06:23:58.735Z,1289
2019-04-20T06:25:01.126Z,1249
2019-04-20T06:26:03.395Z,1296
2019-04-20T06:27:05.552Z,1285
2019-04-20T06:28:07.851Z,1274
2019-04-20T06:29:10.104Z,1236
2019-04-20T06:30:12.380Z,1258
2019-04-20T06:31:14.730Z,1229
2019-04-20T06:32:16.998Z,1235
2019-04-20T06:33:19.341Z,1297
2019-04-20T06:34:21.618Z,1212
2019-04-20T06:35:23.928Z,1199
2019-04-20T06:36:26.107Z,1203
2019-04-20T06:37:28.356Z,1194
2019-04-20T06:38:30.744Z,1201
2019-04-20T06:39:33.055Z,1212
2019-04-20T06:40:35.544Z,1201
2019-04-20T06:41:37.827Z,1272
2019-04-20T06:42:39.992Z,1239
2019-04-20T06:43:42.159Z,1237
2019-04-20T06:44:44.425Z,1221
2019-04-20T06:45:46.713Z,1240
2019-04-20T06:46:48.982Z,1212
2019-04-20T06:47:51.310Z,1203
2019-04-20T06:48:53.528Z,1187
2019-04-20T06:49:55.817Z,1186
2019-04-20T06:50:58.070Z,1200
2019-04-20T06:52:00.341Z,1198
2019-04-20T06:53:02.901Z,1192
2019-04-20T06:54:04.892Z,1183
2019-04-20T06:55:07.275Z,1199
2019-04-20T06:56:09.551Z,1191
2019-04-20T06:57:11.868Z,1169
2019-04-20T06:58:13.985Z,1180
2019-04-20T06:59:16.245Z,1155
2019-04-20T07:00:18.540Z,1151
2019-04-20T07:01:20.830Z,1145
2019-04-20T07:02:23.079Z,1165
2019-04-20T07:03:25.351Z,1151
2019-04-20T07:04:27.632Z,1192
2019-04-20T07:05:29.958Z,1294
2019-04-20T07:06:32.172Z,1237
2019-04-20T07:07:34.445Z,1201
2019-04-20T07:08:36.735Z,1169
2019-04-20T07:09:39.019Z,1163
2019-04-20T07:10:41.282Z,1136
2019-04-20T07:11:43.553Z,1194
2019-04-20T07:12:45.884Z,1183
2019-04-20T07:13:48.144Z,1188
2019-04-20T07:14:52.757Z,1167
2019-04-20T07:15:52.828Z,1153
2019-04-20T07:16:54.949Z,1160
2019-04-20T07:17:57.192Z,1142
2019-04-20T07:18:59.455Z,1167
2019-04-20T07:20:01.761Z,1275
2019-04-20T07:21:04.016Z,1191
2019-04-20T07:22:06.463Z,1171
2019-04-20T07:23:08.558Z,1153
2019-04-20T07:24:10.838Z,1144
2019-04-20T07:25:13.247Z,1165
2019-04-20T07:26:15.403Z,1219
2019-04-20T07:27:17.680Z,1246
2019-04-20T07:28:19.996Z,1184
2019-04-20T07:29:22.209Z,1146
2019-04-20T07:30:24.584Z,1144
2019-04-20T07:31:26.875Z,1148
2019-04-20T07:32:29.152Z,1151
2019-04-20T07:33:31.386Z,1138
2019-04-20T07:34:33.652Z,1139
2019-04-20T07:35:35.952Z,1147
2019-04-20T07:36:38.215Z,1141
2019-04-20T07:37:40.465Z,1139
2019-04-20T07:38:42.772Z,1139
2019-04-20T07:39:45.197Z,1137
2019-04-20T07:40:47.309Z,1130
2019-04-20T07:41:49.663Z,1137
2019-04-20T07:42:51.953Z,1137
2019-04-20T07:43:54.163Z,1135
2019-04-20T07:44:56.393Z,1123
2019-04-20T07:46:02.199Z,1137
2019-04-20T07:47:00.936Z,1131
2019-04-20T07:48:03.285Z,1132
2019-04-20T07:49:05.563Z,1137
2019-04-20T07:50:07.772Z,1138
2019-04-20T07:51:10.072Z,1135
2019-04-20T07:52:12.375Z,1121
2019-04-20T07:53:14.604Z,1136
2019-04-20T07:54:16.927Z,1139
2019-04-20T07:55:19.250Z,1139
2019-04-20T07:56:21.634Z,1148
2019-04-20T07:57:23.775Z,1139
2019-04-20T07:58:26.136Z,1241
2019-04-20T07:59:28.338Z,1189
2019-04-20T08:00:30.633Z,1165
2019-04-20T08:01:32.866Z,1171
2019-04-20T08:02:35.189Z,1151
2019-04-20T08:03:37.412Z,1148
2019-04-20T08:04:39.679Z,1169
2019-04-20T08:05:41.973Z,1151
2019-04-20T08:06:44.366Z,1145
2019-04-20T08:07:46.585Z,1153
2019-04-20T08:08:48.795Z,1148
2019-04-20T08:09:51.055Z,1162
2019-04-20T08:10:53.341Z,1152
2019-04-20T08:11:55.608Z,1144
2019-04-20T08:12:58.037Z,1159
2019-04-20T08:14:00.178Z,1187
2019-04-20T08:15:02.483Z,1213
2019-04-20T08:16:04.735Z,1230
2019-04-20T08:17:07.076Z,1217
2019-04-20T08:18:09.300Z,1217
2019-04-20T08:19:11.532Z,1220
2019-04-20T08:20:13.887Z,1181
2019-04-20T08:21:16.079Z,1153
2019-04-20T08:22:18.381Z,1159
2019-04-20T08:23:20.659Z,1159
2019-04-20T08:24:22.948Z,1162
2019-04-20T08:25:25.191Z,1211
2019-04-20T08:26:27.449Z,1268
2019-04-20T08:27:29.702Z,1213
2019-04-20T08:28:32.001Z,1208
2019-04-20T08:29:34.358Z,1187
2019-04-20T08:30:36.584Z,1167
2019-04-20T08:31:38.850Z,1159
2019-04-20T08:32:41.177Z,1167
2019-04-20T08:33:43.527Z,1179
2019-04-20T08:34:45.921Z,1148
2019-04-20T08:35:47.990Z,1181
2019-04-20T08:36:50.459Z,1208
2019-04-20T08:37:52.658Z,1173
2019-04-20T08:38:54.832Z,1191
2019-04-20T08:39:57.107Z,1178
2019-04-20T08:40:59.360Z,1152
2019-04-20T08:42:03.961Z,1173
2019-04-20T08:43:03.911Z,1192
2019-04-20T08:44:06.232Z,1228
2019-04-20T08:45:08.460Z,1221
2019-04-20T08:46:10.821Z,1171
2019-04-20T08:47:13.008Z,1169
2019-04-20T08:48:15.263Z,1220
2019-04-20T08:49:17.542Z,1175
2019-04-20T08:50:20.025Z,1189
2019-04-20T08:51:22.118Z,1196
2019-04-20T08:52:24.509Z,1193
2019-04-20T08:53:26.637Z,1176
2019-04-20T08:54:28.909Z,1183
2019-04-20T08:55:36.075Z,1168
2019-04-20T08:56:33.450Z,1183
2019-04-20T08:57:35.745Z,1176
2019-04-20T08:58:38.033Z,1167
2019-04-20T08:59:40.290Z,1226
2019-04-20T09:00:43.138Z,1196
2019-04-20T09:01:44.823Z,1201
2019-04-20T09:02:47.133Z,1177
2019-04-20T09:03:49.430Z,1180
2019-04-20T09:04:51.648Z,1182
2019-04-20T09:05:53.928Z,1167
2019-04-20T09:06:56.179Z,1183
2019-04-20T09:07:58.486Z,1161
2019-04-20T09:09:00.757Z,1164
2019-04-20T09:10:03.019Z,1176
2019-04-20T09:11:05.333Z,1183
2019-04-20T09:12:07.633Z,1164
2019-04-20T09:13:09.902Z,1152
2019-04-20T09:14:12.114Z,1212
2019-04-20T09:15:14.408Z,1185
2019-04-20T09:16:16.652Z,1151
2019-04-20T09:17:19.002Z,1130
2019-04-20T09:18:21.220Z,1135
2019-04-20T09:19:23.570Z,1123
2019-04-20T09:20:25.754Z,1132
2019-04-20T09:21:28.172Z,1068
2019-04-20T09:22:30.310Z,1071
2019-04-20T09:23:32.599Z,1078
2019-04-20T09:24:34.965Z,1125
2019-04-20T09:25:37.273Z,1092
2019-04-20T09:26:39.408Z,1115
2019-04-20T09:27:41.667Z,1075
2019-04-20T09:28:44.059Z,1084
2019-04-20T09:29:46.219Z,1084
2019-04-20T09:30:48.502Z,1047
2019-04-20T09:31:50.872Z,1048
2019-04-20T09:32:54.017Z,1046
2019-04-20T09:33:55.460Z,1022
2019-04-20T09:34:57.672Z,1034
2019-04-20T09:35:59.964Z,1027
2019-04-20T09:37:02.224Z,1034
2019-04-20T09:38:04.522Z,1029
2019-04-20T09:39:06.777Z,1011
2019-04-20T09:40:09.056Z,1016
2019-04-20T09:41:11.324Z,1027
2019-04-20T09:42:13.585Z,1076
2019-04-20T09:43:15.995Z,1094
2019-04-20T09:44:18.133Z,1102
2019-04-20T09:45:20.520Z,1119
2019-04-20T09:46:22.685Z,1127
2019-04-20T09:47:24.982Z,1119
2019-04-20T09:48:27.241Z,1123
2019-04-20T09:49:29.532Z,1123
2019-04-20T09:50:31.817Z,1118
2019-04-20T09:51:34.130Z,1115
2019-04-20T09:52:36.341Z,1111
2019-04-20T09:53:38.695Z,1107
2019-04-20T09:54:40.876Z,1116
2019-04-20T09:55:43.152Z,1128
2019-04-20T09:56:45.412Z,1124
2019-04-20T09:57:47.746Z,1115
2019-04-20T09:58:49.953Z,1119
2019-04-20T09:59:52.236Z,1109
2019-04-20T10:00:54.512Z,1105
2019-04-20T10:01:56.944Z,1116
2019-04-20T10:02:59.072Z,1102
2019-04-20T10:04:01.428Z,1112
2019-04-20T10:05:05.073Z,1107
2019-04-20T10:06:05.913Z,1106
2019-04-20T10:07:09.361Z,1116
2019-04-20T10:08:10.469Z,1112
2019-04-20T10:09:12.776Z,1137
2019-04-20T10:10:19.867Z,1121
2019-04-20T10:11:17.334Z,1116
2019-04-20T10:12:19.528Z,1116
2019-04-20T10:13:21.791Z,1118
2019-04-20T10:14:24.543Z,1109
2019-04-20T10:15:26.427Z,1103
2019-04-20T10:16:28.630Z,1101
2019-04-20T10:17:30.901Z,1109
2019-04-20T10:18:33.959Z,1116
2019-04-20T10:19:35.537Z,1115
2019-04-20T10:20:37.715Z,1131
2019-04-20T10:21:40.093Z,1128
2019-04-20T10:22:42.277Z,1143
2019-04-20T10:23:48.825Z,1115
2019-04-20T10:24:46.823Z,1123
2019-04-20T10:25:49.073Z,1118
2019-04-20T10:26:51.472Z,1136
2019-04-20T10:27:53.706Z,1135
2019-04-20T10:28:55.902Z,1133
2019-04-20T10:29:58.647Z,1141
2019-04-20T10:31:00.461Z,1150
2019-04-20T10:32:02.727Z,1135
2019-04-20T10:33:05.005Z,1121
2019-04-20T10:34:07.360Z,1117
2019-04-20T10:35:09.602Z,1125
2019-04-20T10:36:11.914Z,1122
2019-04-20T10:37:14.173Z,1110
2019-04-20T10:38:16.431Z,1121
2019-04-20T10:39:18.693Z,1128
2019-04-20T10:40:21.076Z,1126
2019-04-20T10:41:23.255Z,1112
2019-04-20T10:42:25.552Z,1123
2019-04-20T10:43:27.793Z,1117
2019-04-20T10:44:30.058Z,1123
2019-04-20T10:45:32.501Z,1135
2019-04-20T10:46:34.609Z,1147
2019-04-20T10:47:36.865Z,1139
2019-04-20T10:48:39.220Z,1132
2019-04-20T10:49:41.494Z,1132
2019-04-20T10:50:43.697Z,1142
2019-04-20T10:51:45.963Z,1145
2019-04-20T10:52:48.232Z,1125
2019-04-20T10:53:50.553Z,1129
2019-04-20T10:54:52.796Z,1136
2019-04-20T10:56:57.432Z,1139
2019-04-20T10:57:59.597Z,1112
2019-04-20T10:59:01.974Z,1124
2019-04-20T11:00:04.251Z,1127
2019-04-20T11:01:06.539Z,1118
2019-04-20T11:02:08.726Z,1127
2019-04-20T11:03:10.951Z,1155
2019-04-20T11:04:13.265Z,1139
2019-04-20T11:05:15.595Z,1141
2019-04-20T11:06:17.768Z,1148
2019-04-20T11:07:20.031Z,1160
2019-04-20T11:08:22.319Z,1137
2019-04-20T11:09:24.594Z,1146
2019-04-20T11:10:26.957Z,1148
2019-04-20T11:11:29.138Z,1132
2019-04-20T11:12:31.438Z,1136
2019-04-20T11:13:33.754Z,1157
2019-04-20T11:14:35.995Z,1165
2019-04-20T11:15:38.239Z,1162
2019-04-20T11:16:40.484Z,1151
2019-04-20T11:17:42.802Z,1138
2019-04-20T11:18:45.037Z,1135
2019-04-20T11:19:47.305Z,1138
2019-04-20T11:20:49.580Z,1148
2019-04-20T11:21:51.902Z,1150
2019-04-20T11:22:54.161Z,1157
2019-04-20T11:23:56.511Z,1139
2019-04-20T11:24:58.671Z,1147
2019-04-20T11:26:00.951Z,1134
2019-04-20T11:27:03.335Z,1135
2019-04-20T11:28:05.528Z,1130
2019-04-20T11:29:07.809Z,1142
2019-04-20T11:30:10.057Z,1138
2019-04-20T11:31:12.409Z,1143
2019-04-20T11:32:14.602Z,1125
2019-04-20T11:33:16.958Z,1125
2019-04-20T11:34:19.210Z,1135
2019-04-20T11:35:21.582Z,1131
2019-04-20T11:36:23.839Z,1130
2019-04-20T11:37:26.041Z,1137
2019-04-20T11:38:28.300Z,1160
2019-04-20T11:39:30.567Z,1180
2019-04-20T11:40:32.856Z,1168
2019-04-20T11:41:35.143Z,1157
2019-04-20T11:42:37.383Z,1141
2019-04-20T11:43:39.663Z,1144
2019-04-20T11:44:41.938Z,1143
2019-04-20T11:45:44.201Z,1190
2019-04-20T11:46:46.580Z,1147
2019-04-20T11:47:48.823Z,1153
2019-04-20T11:48:51.080Z,1139
2019-04-20T11:49:53.377Z,1152
2019-04-20T11:50:56.742Z,1153
2019-04-20T11:51:57.971Z,1139
2019-04-20T11:53:00.119Z,1154
2019-04-20T11:54:02.399Z,1152
2019-04-20T11:55:04.677Z,1157
2019-04-20T11:56:07.071Z,1136
2019-04-20T11:57:09.285Z,1140
2019-04-20T11:58:11.514Z,1144
2019-04-20T11:59:13.747Z,1148
2019-04-20T12:00:16.008Z,1146
2019-04-20T12:01:18.355Z,1148
2019-04-20T12:02:20.591Z,1164
2019-04-20T12:03:22.860Z,1176
2019-04-20T12:04:25.275Z,1151
2019-04-20T12:05:27.377Z,1178
2019-04-20T12:06:29.638Z,1167
2019-04-20T12:07:31.924Z,1148
2019-04-20T12:08:34.295Z,1159
2019-04-20T12:09:36.514Z,1154
2019-04-20T12:10:38.870Z,1154
2019-04-20T12:11:41.034Z,1160
2019-04-20T12:12:43.357Z,1178
2019-04-20T12:13:45.581Z,1187
2019-04-20T12:14:47.949Z,1203
2019-04-20T12:15:50.163Z,1214
2019-04-20T12:16:52.389Z,1211
2019-04-20T12:17:54.670Z,1195
2019-04-20T12:18:56.907Z,1219
2019-04-20T12:19:59.221Z,1186
2019-04-20T12:21:01.837Z,1180
2019-04-20T12:22:04.835Z,1180
2019-04-20T12:23:06.037Z,1219
2019-04-20T12:24:08.282Z,1199
2019-04-20T12:25:10.641Z,1215
2019-04-20T12:26:12.854Z,1195
2019-04-20T12:27:20.161Z,1183
2019-04-20T12:28:17.427Z,1171
2019-04-20T12:29:19.650Z,1169
2019-04-20T12:30:22.019Z,1169
2019-04-20T12:31:24.273Z,1178
2019-04-20T12:32:26.553Z,1171
2019-04-20T12:33:28.818Z,1178
2019-04-20T12:34:31.104Z,1180
2019-04-20T12:35:33.472Z,1164
2019-04-20T12:36:35.744Z,1168
2019-04-20T12:37:37.908Z,1156
2019-04-20T12:38:40.176Z,1166
2019-04-20T12:39:42.469Z,1173
2019-04-20T12:40:44.834Z,1170
2019-04-20T12:41:47.040Z,1161
2019-04-20T12:42:49.284Z,1198
2019-04-20T12:43:51.562Z,1174
2019-04-20T12:44:53.828Z,1173
2019-04-20T12:45:56.083Z,1180
2019-04-20T12:46:58.369Z,1180
2019-04-20T12:48:00.656Z,1162
2019-04-20T12:49:02.892Z,1178
2019-04-20T12:50:05.293Z,1171
2019-04-20T12:51:07.500Z,1169
2019-04-20T12:52:09.815Z,1188
2019-04-20T12:53:12.012Z,1207
2019-04-20T12:54:14.301Z,1177
2019-04-20T12:55:16.538Z,1165
2019-04-20T12:56:18.882Z,1213
2019-04-20T12:57:21.079Z,1213
2019-04-20T12:58:23.378Z,1181
2019-04-20T12:59:25.618Z,1176
2019-04-20T13:00:27.888Z,1175
2019-04-20T13:01:30.221Z,1180
2019-04-20T13:02:32.520Z,1173
2019-04-20T13:03:34.741Z,1198
2019-04-20T13:04:37.146Z,1167
2019-04-20T13:05:39.266Z,1175
2019-04-20T13:06:41.572Z,1175
2019-04-20T13:07:43.856Z,1187
2019-04-20T13:08:46.151Z,1192
2019-04-20T13:09:48.351Z,1191
2019-04-20T13:10:50.642Z,1231
2019-04-20T13:11:52.914Z,1224
2019-04-20T13:12:55.175Z,1221
2019-04-20T13:13:57.546Z,1237
2019-04-20T13:14:59.796Z,1210
2019-04-20T13:16:02.048Z,1206
2019-04-20T13:17:04.257Z,1227
2019-04-20T13:18:06.611Z,1209
2019-04-20T13:19:08.903Z,1256
2019-04-20T13:20:11.105Z,1223
2019-04-20T13:21:13.356Z,1207
2019-04-20T13:22:15.639Z,1206
2019-04-20T13:23:17.894Z,1209
2019-04-20T13:24:20.354Z,1210
2019-04-20T13:25:22.731Z,1210
2019-04-20T13:26:24.967Z,1203
2019-04-20T13:27:26.973Z,1207
2019-04-20T13:28:29.340Z,1258
2019-04-20T13:29:31.647Z,1240
2019-04-20T13:30:34.178Z,1248
2019-04-20T13:31:36.179Z,1266
2019-04-20T13:32:38.418Z,1242
2019-04-20T13:33:40.711Z,1274
2019-04-20T13:34:43.035Z,1262
2019-04-20T13:35:45.367Z,1249
2019-04-20T13:36:47.520Z,1226
2019-04-20T13:37:49.942Z,1237
2019-04-20T13:38:52.096Z,1221
2019-04-20T13:39:54.428Z,1217
2019-04-20T13:40:56.638Z,1228
2019-04-20T13:41:58.885Z,1265
2019-04-20T13:43:05.252Z,1233
2019-04-20T13:44:03.472Z,1221
2019-04-20T13:45:05.804Z,1246
2019-04-20T13:46:08.083Z,1221
2019-04-20T13:47:10.344Z,1216
2019-04-20T13:48:12.546Z,1290
2019-04-20T13:49:14.909Z,1242
2019-04-20T13:50:17.082Z,1224
2019-04-20T13:51:19.336Z,1227
2019-04-20T13:52:21.702Z,1242